Time;durP1;ratioP1;P1;durP2;ratioP2;P2;SDS_P1;SDS_P2;PMS_P1;PMS_P2;Temp;Humidity;BMP_temperature;BMP_pressure;BME280_temperature;BME280_humidity;BME280_pressure;Samples;Min_cycle;Max_cycle;Signal;HPM_P1;HPM_P2
2023/05/21 00:00:17;;;;;;;7.03;2.10;;;15.70;99.90;;;;;;3991252;29;20172;-88
2023/05/21 00:02:18;;;;;;;5.53;2.33;;;15.70;99.90;;;;;;3991281;29;20192;-88
2023/05/21 00:04:19;;;;;;;4.15;2.38;;;15.70;99.90;;;;;;4006853;29;20746;-88
2023/05/21 00:06:21;;;;;;;6.85;2.38;;;15.60;99.90;;;;;;4006493;29;20210;-89
2023/05/21 00:08:23;;;;;;;10.63;2.38;;;15.60;99.90;;;;;;3993381;29;20547;-88
2023/05/21 00:10:23;;;;;;;12.00;2.97;;;15.60;99.90;;;;;;4009114;29;20609;-89
2023/05/21 00:12:24;;;;;;;5.05;2.53;;;15.50;99.90;;;;;;4024418;29;20181;-88
2023/05/21 00:14:25;;;;;;;3.90;2.35;;;15.60;99.90;;;;;;4009011;29;20208;-88
2023/05/21 00:16:26;;;;;;;4.55;2.42;;;15.50;99.90;;;;;;4024251;29;20691;-88
2023/05/21 00:18:27;;;;;;;5.60;2.28;;;15.50;99.90;;;;;;4024336;29;20186;-88
2023/05/21 00:20:30;;;;;;;3.15;2.03;;;15.40;99.90;;;;;;4009201;29;20335;-88
2023/05/21 00:22:32;;;;;;;3.80;2.58;;;15.30;99.90;;;;;;4008896;29;20175;-88
2023/05/21 00:24:33;;;;;;;9.70;2.40;;;15.30;99.90;;;;;;4024034;29;20181;-88
2023/05/21 00:26:33;;;;;;;10.30;2.25;;;15.30;99.90;;;;;;4008873;29;20656;-88
2023/05/21 00:28:34;;;;;;;8.32;3.40;;;15.40;99.90;;;;;;4009525;29;20179;-89
2023/05/21 00:30:35;;;;;;;5.07;2.67;;;15.30;99.90;;;;;;4008848;29;20275;-88
2023/05/21 00:32:36;;;;;;;5.25;2.70;;;15.40;99.90;;;;;;4008815;29;20274;-88
2023/05/21 00:34:37;;;;;;;5.10;2.63;;;15.30;99.90;;;;;;4008772;29;20270;-94
2023/05/21 00:36:39;;;;;;;3.92;2.58;;;15.30;99.90;;;;;;4008647;29;20218;-89
2023/05/21 00:38:44;;;;;;;6.80;2.92;;;15.00;99.90;;;;;;4008587;29;20185;-89
2023/05/21 00:40:45;;;;;;;5.15;2.63;;;14.90;99.90;;;;;;3993396;29;20179;-89
2023/05/21 00:42:46;;;;;;;5.88;3.30;;;14.70;99.90;;;;;;4023922;29;20194;-88
2023/05/21 00:44:47;;;;;;;6.28;2.92;;;14.70;99.90;;;;;;3993701;29;20278;-89
2023/05/21 00:46:52;;;;;;;7.28;3.00;;;14.90;99.90;;;;;;4023876;29;20206;-94
2023/05/21 00:48:53;;;;;;;7.00;2.75;;;15.10;99.90;;;;;;4023977;29;20174;-89
2023/05/21 00:50:55;;;;;;;5.88;2.90;;;15.30;99.90;;;;;;4023800;29;20210;-88
2023/05/21 00:52:56;;;;;;;10.65;2.90;;;15.20;99.90;;;;;;4023799;29;20576;-88
2023/05/21 00:54:57;;;;;;;6.57;2.75;;;15.10;99.90;;;;;;4008273;29;20199;-88
2023/05/21 00:56:58;;;;;;;6.38;2.58;;;14.90;99.90;;;;;;4008465;29;20219;-87
2023/05/21 00:59:04;;;;;;;4.43;2.67;;;14.80;99.90;;;;;;4008480;29;20665;-88
2023/05/21 01:01:05;;;;;;;9.30;2.78;;;14.90;99.90;;;;;;4008188;29;20724;-88
2023/05/21 01:03:06;;;;;;;3.90;2.42;;;14.80;99.90;;;;;;4024145;29;20185;-94
2023/05/21 01:05:07;;;;;;;7.53;2.83;;;14.70;99.90;;;;;;3993131;29;20202;-89
2023/05/21 01:07:08;;;;;;;6.18;2.63;;;14.80;99.90;;;;;;4008291;29;20230;-88
2023/05/21 01:09:09;;;;;;;8.98;2.75;;;14.80;99.90;;;;;;3994166;29;20519;-89
2023/05/21 01:11:10;;;;;;;5.82;2.58;;;14.60;99.90;;;;;;4008779;29;20182;-89
2023/05/21 01:13:11;;;;;;;5.47;2.95;;;14.40;99.90;;;;;;4008304;29;20625;-88
2023/05/21 01:15:13;;;;;;;7.72;2.88;;;14.40;99.90;;;;;;4008588;29;20599;-89
2023/05/21 01:17:14;;;;;;;6.85;2.60;;;14.20;99.90;;;;;;3993353;29;20221;-89
2023/05/21 01:19:20;;;;;;;5.30;2.75;;;14.00;99.90;;;;;;3993035;29;20180;-88
2023/05/21 01:21:24;;;;;;;10.18;2.63;;;14.10;99.90;;;;;;3993761;29;20180;-88
2023/05/21 01:23:25;;;;;;;8.75;2.95;;;14.30;99.90;;;;;;3993193;29;20274;-88
2023/05/21 01:25:27;;;;;;;5.32;3.22;;;14.50;99.90;;;;;;4008380;29;20290;-88
2023/05/21 01:27:28;;;;;;;4.75;2.85;;;14.50;99.90;;;;;;4008239;29;20187;-89
2023/05/21 01:29:28;;;;;;;3.45;2.60;;;14.50;99.90;;;;;;4008400;29;20216;-88
2023/05/21 01:31:36;;;;;;;4.82;3.10;;;14.50;99.90;;;;;;3993121;29;20274;-88
2023/05/21 01:33:48;;;;;;;5.80;2.67;;;14.40;99.90;;;;;;3993230;29;20281;-87
2023/05/21 01:36:16;;;;;;;6.63;3.08;;;14.40;99.90;;;;;;3992878;29;20206;-88
2023/05/21 01:39:06;;;;;;;7.68;3.05;;;14.30;99.90;;;;;;3992857;29;20187;-88
2023/05/21 01:41:12;;;;;;;7.10;2.53;;;14.00;99.90;;;;;;3992829;29;20187;-89
2023/05/21 01:43:14;;;;;;;6.03;2.90;;;14.00;99.90;;;;;;4007633;29;20668;-88
2023/05/21 01:45:16;;;;;;;6.28;3.30;;;14.00;99.90;;;;;;3992628;29;20199;-88
2023/05/21 01:47:18;;;;;;;8.57;3.13;;;14.30;99.90;;;;;;4007652;29;20232;-88
2023/05/21 01:49:21;;;;;;;7.20;2.63;;;14.10;99.90;;;;;;4007389;29;20669;-88
2023/05/21 01:51:23;;;;;;;6.28;2.72;;;14.00;99.90;;;;;;3992264;29;20262;-88
2023/05/21 01:53:24;;;;;;;5.47;3.13;;;13.90;99.90;;;;;;3992511;29;20214;-88
2023/05/21 01:55:27;;;;;;;7.78;3.05;;;14.00;99.90;;;;;;3992497;29;20610;-88
2023/05/21 01:57:28;;;;;;;6.47;2.83;;;13.90;99.90;;;;;;4007184;29;20602;-89
2023/05/21 01:59:29;;;;;;;5.97;2.92;;;13.90;99.90;;;;;;4007407;29;20224;-88
2023/05/21 02:01:29;;;;;;;4.97;2.80;;;13.80;99.90;;;;;;4007494;29;20649;-89
2023/05/21 02:03:30;;;;;;;4.53;2.70;;;13.70;99.90;;;;;;4007321;29;20660;-88
2023/05/21 02:05:31;;;;;;;4.60;2.97;;;13.70;99.90;;;;;;4007363;29;20293;-88
2023/05/21 02:07:32;;;;;;;4.53;2.80;;;13.60;99.90;;;;;;4006876;29;20201;-88
2023/05/21 02:09:35;;;;;;;6.68;3.20;;;13.80;99.90;;;;;;3992365;29;20534;-88
2023/05/21 02:11:35;;;;;;;7.68;3.03;;;13.80;99.90;;;;;;4007113;29;20178;-88
2023/05/21 02:13:40;;;;;;;6.30;2.58;;;13.80;99.90;;;;;;3992259;29;20214;-89
2023/05/21 02:15:41;;;;;;;8.38;2.90;;;13.90;99.90;;;;;;4007008;29;20230;-88
2023/05/21 02:17:43;;;;;;;6.05;2.95;;;13.90;99.90;;;;;;3992034;29;20230;-88
2023/05/21 02:19:45;;;;;;;5.53;2.83;;;13.90;99.90;;;;;;3992312;29;20180;-89
2023/05/21 02:21:46;;;;;;;7.97;2.97;;;13.80;99.90;;;;;;4007122;29;20203;-89
2023/05/21 02:23:47;;;;;;;7.85;3.13;;;13.70;99.90;;;;;;4007324;29;20171;-88
2023/05/21 02:25:48;;;;;;;4.80;2.90;;;13.80;99.90;;;;;;3991993;29;20267;-88
2023/05/21 02:27:52;;;;;;;5.88;2.78;;;13.70;99.90;;;;;;3991881;29;20701;-88
2023/05/21 02:29:53;;;;;;;5.13;2.70;;;13.60;99.90;;;;;;4021989;29;20182;-88
2023/05/21 02:31:53;;;;;;;6.50;3.13;;;13.60;99.90;;;;;;3991963;29;20261;-89
2023/05/21 02:33:55;;;;;;;5.95;2.72;;;13.60;99.90;;;;;;4007077;29;20186;-90
2023/05/21 02:35:55;;;;;;;6.07;2.75;;;13.50;99.90;;;;;;4022249;29;20200;-95
2023/05/21 02:37:57;;;;;;;5.63;3.03;;;13.40;99.90;;;;;;4006932;29;20195;-89
2023/05/21 02:39:59;;;;;;;4.75;3.05;;;13.40;99.90;;;;;;4007079;29;20175;-88
2023/05/21 02:42:00;;;;;;;8.07;3.00;;;13.40;99.90;;;;;;4022288;29;20192;-88
2023/05/21 02:44:01;;;;;;;8.63;2.90;;;13.30;99.90;;;;;;4006976;29;20243;-88
2023/05/21 02:46:03;;;;;;;6.55;3.05;;;13.30;99.90;;;;;;4022017;29;20212;-88
2023/05/21 02:48:04;;;;;;;7.47;3.28;;;13.40;99.90;;;;;;4006663;29;20664;-89
2023/05/21 02:50:09;;;;;;;5.88;3.28;;;13.40;99.90;;;;;;4006881;29;20679;-89
2023/05/21 02:52:18;;;;;;;4.55;3.30;;;13.40;99.90;;;;;;4007564;29;20628;-88
2023/05/21 02:54:20;;;;;;;8.80;3.22;;;13.30;99.90;;;;;;4006531;29;20182;-88
2023/05/21 02:56:21;;;;;;;5.03;3.30;;;13.30;99.90;;;;;;4006464;29;20214;-89
2023/05/21 02:58:24;;;;;;;7.28;3.33;;;13.40;99.90;;;;;;4006751;29;20667;-88
2023/05/21 03:00:25;;;;;;;8.32;3.78;;;13.30;99.90;;;;;;4006777;29;20171;-88
2023/05/21 03:02:25;;;;;;;8.13;3.63;;;13.50;99.90;;;;;;4007175;29;20517;-89
2023/05/21 03:04:27;;;;;;;4.90;3.60;;;13.60;99.90;;;;;;4022218;29;20179;-88
2023/05/21 03:06:30;;;;;;;6.82;4.13;;;13.70;99.90;;;;;;4021865;29;20194;-88
2023/05/21 03:08:31;;;;;;;6.93;3.95;;;13.60;99.90;;;;;;4021948;29;20186;-88
2023/05/21 03:10:32;;;;;;;10.65;3.42;;;13.60;99.90;;;;;;3991662;29;20184;-90
2023/05/21 03:12:33;;;;;;;10.10;3.50;;;13.60;99.90;;;;;;4021941;29;20185;-89
2023/05/21 03:14:34;;;;;;;12.40;3.60;;;13.70;99.90;;;;;;3991593;29;20185;-88
2023/05/21 03:16:35;;;;;;;7.68;3.80;;;13.50;99.90;;;;;;4006264;29;20215;-88
2023/05/21 03:18:35;;;;;;;7.07;3.33;;;13.40;99.90;;;;;;4006494;29;20255;-89
2023/05/21 03:20:42;;;;;;;10.93;3.80;;;13.20;99.90;;;;;;4021822;29;20170;-89
2023/05/21 03:22:43;;;;;;;9.07;3.97;;;13.10;99.90;;;;;;3991709;29;20601;-88
2023/05/21 03:24:45;;;;;;;7.78;4.68;;;13.20;99.90;;;;;;4006473;29;20665;-94
2023/05/21 03:26:47;;;;;;;9.60;4.60;;;13.20;99.90;;;;;;4006578;29;20266;-93
2023/05/21 03:28:48;;;;;;;12.15;5.03;;;13.20;99.90;;;;;;4006613;29;20179;-93
2023/05/21 03:30:49;;;;;;;13.18;4.65;;;13.10;99.90;;;;;;4006186;29;20191;-88
2023/05/21 03:33:12;;;;;;;12.90;5.00;;;13.10;99.90;;;;;;3999498;29;20706;-89
2023/05/21 03:35:15;;;;;;;7.93;4.65;;;13.20;99.90;;;;;;4006744;29;20231;-89
2023/05/21 03:37:15;;;;;;;9.90;5.10;;;13.20;99.90;;;;;;4006246;29;20270;-88
2023/05/21 03:39:16;;;;;;;12.75;5.45;;;13.30;99.90;;;;;;4006287;29;20179;-88
2023/05/21 03:41:17;;;;;;;10.52;5.75;;;13.50;99.90;;;;;;4006587;29;20207;-88
2023/05/21 03:43:23;;;;;;;14.07;5.90;;;13.70;99.90;;;;;;4009564;29;20183;-89
2023/05/21 03:45:24;;;;;;;9.23;5.25;;;13.70;99.90;;;;;;4024614;29;20209;-89
2023/05/21 03:47:50;;;;;;;8.43;5.10;;;13.50;99.90;;;;;;4022733;29;20273;-90
2023/05/21 03:49:51;;;;;;;10.38;5.45;;;13.20;99.90;;;;;;4009085;29;20529;-88
2023/05/21 03:51:52;;;;;;;11.32;5.80;;;13.20;99.90;;;;;;3993902;29;20656;-88
2023/05/21 03:53:54;;;;;;;9.65;5.35;;;13.20;99.90;;;;;;4009293;29;20179;-89
2023/05/21 03:55:55;;;;;;;13.88;5.47;;;13.10;99.90;;;;;;4009103;29;20202;-88
2023/05/21 03:57:58;;;;;;;11.45;5.40;;;13.10;99.90;;;;;;4009016;29;20183;-89
2023/05/21 03:59:59;;;;;;;9.68;5.18;;;13.20;99.90;;;;;;4024337;29;20664;-89
2023/05/21 04:02:00;;;;;;;14.68;4.65;;;13.20;99.90;;;;;;3993916;29;20707;-89
2023/05/21 04:04:01;;;;;;;8.18;3.95;;;13.20;99.90;;;;;;4009212;29;20345;-89
2023/05/21 04:06:03;;;;;;;8.13;4.80;;;13.10;99.90;;;;;;3993596;29;20195;-94
2023/05/21 04:08:03;;;;;;;6.20;4.32;;;13.00;99.90;;;;;;3993963;29;20236;-88
2023/05/21 04:10:05;;;;;;;10.95;4.15;;;12.90;99.90;;;;;;4009014;29;20175;-92
2023/05/21 04:12:06;;;;;;;8.15;4.22;;;13.00;99.90;;;;;;4009214;29;20190;-93
2023/05/21 04:14:07;;;;;;;8.88;4.50;;;13.00;99.90;;;;;;4008992;29;20199;-88
2023/05/21 04:16:08;;;;;;;5.82;4.55;;;12.90;99.90;;;;;;3993529;29;20195;-89
2023/05/21 04:18:09;;;;;;;11.40;4.50;;;12.90;99.90;;;;;;3993628;29;20237;-89
2023/05/21 04:20:12;;;;;;;7.30;4.65;;;12.90;99.90;;;;;;4023957;29;20182;-89
2023/05/21 04:22:13;;;;;;;5.40;3.97;;;12.90;99.90;;;;;;4008829;29;20274;-89
2023/05/21 04:24:14;;;;;;;9.05;4.97;;;12.90;99.90;;;;;;4008774;29;20289;-93
2023/05/21 04:26:41;;;;;;;10.95;4.65;;;13.00;99.90;;;;;;4012991;29;20182;-89
2023/05/21 04:28:44;;;;;;;6.90;4.47;;;13.10;99.90;;;;;;4008820;29;20186;-89
2023/05/21 04:30:46;;;;;;;6.90;4.43;;;13.20;99.90;;;;;;3993305;29;20252;-89
2023/05/21 04:32:47;;;;;;;8.52;4.53;;;13.30;99.90;;;;;;4008818;29;20182;-90
2023/05/21 04:34:47;;;;;;;7.63;4.78;;;13.30;99.90;;;;;;4008759;29;20301;-89
2023/05/21 04:36:48;;;;;;;8.13;4.68;;;13.30;99.90;;;;;;4008298;29;20226;-89
2023/05/21 04:38:49;;;;;;;6.25;4.32;;;13.40;99.90;;;;;;4008613;29;20689;-89
2023/05/21 04:40:50;;;;;;;12.75;4.93;;;13.40;99.90;;;;;;4023858;29;20651;-89
2023/05/21 04:42:51;;;;;;;7.63;4.63;;;13.60;99.90;;;;;;4008619;29;20179;-89
2023/05/21 04:44:58;;;;;;;8.23;4.57;;;13.60;99.90;;;;;;4008912;29;20283;-89
2023/05/21 04:46:59;;;;;;;11.32;4.63;;;13.60;99.90;;;;;;4024186;29;20273;-90
2023/05/21 04:49:03;;;;;;;9.60;4.55;;;13.70;99.90;;;;;;3993453;29;20198;-89
2023/05/21 04:51:07;;;;;;;8.35;4.60;;;13.90;99.90;;;;;;4023662;29;20177;-89
2023/05/21 04:53:08;;;;;;;9.73;4.80;;;14.00;99.90;;;;;;4023260;29;20590;-89
2023/05/21 04:55:08;;;;;;;9.07;4.50;;;14.00;99.90;;;;;;4022853;29;20194;-89
2023/05/21 04:57:10;;;;;;;7.78;4.53;;;13.80;99.90;;;;;;4023214;29;20225;-89
2023/05/21 04:59:12;;;;;;;10.07;5.18;;;14.20;99.90;;;;;;4007979;29;20632;-89
2023/05/21 05:01:14;;;;;;;8.13;4.72;;;14.20;99.90;;;;;;4008105;29;20665;-89
2023/05/21 05:03:14;;;;;;;8.38;4.80;;;14.10;99.90;;;;;;4008323;29;20238;-94
2023/05/21 05:05:17;;;;;;;8.30;4.70;;;13.90;99.90;;;;;;4023257;29;20206;-89
2023/05/21 05:07:18;;;;;;;8.65;4.85;;;14.00;99.90;;;;;;4023341;29;20317;-89
2023/05/21 05:09:20;;;;;;;9.02;4.60;;;14.10;99.90;;;;;;4008113;29;20274;-89
2023/05/21 05:11:22;;;;;;;7.15;4.45;;;14.20;99.90;;;;;;3993708;29;20199;-89
2023/05/21 05:13:22;;;;;;;6.28;4.65;;;14.30;99.90;;;;;;4007966;29;20183;-89
2023/05/21 05:15:23;;;;;;;8.55;4.30;;;14.50;99.90;;;;;;4008048;29;20236;-90
2023/05/21 05:17:25;;;;;;;6.35;4.65;;;14.60;99.90;;;;;;3992753;29;20223;-89
2023/05/21 05:19:26;;;;;;;8.95;4.65;;;14.80;99.90;;;;;;4007941;29;20676;-88
2023/05/21 05:21:27;;;;;;;7.82;4.63;;;14.90;99.90;;;;;;3993028;29;20553;-89
2023/05/21 05:23:28;;;;;;;9.50;5.00;;;14.90;99.90;;;;;;4007682;29;20703;-88
2023/05/21 05:25:28;;;;;;;10.13;4.80;;;15.00;99.90;;;;;;3992407;29;20210;-89
2023/05/21 05:27:29;;;;;;;7.38;4.40;;;15.10;99.90;;;;;;4023013;29;20210;-89
2023/05/21 05:29:30;;;;;;;6.68;4.70;;;15.10;99.90;;;;;;4008017;29;20179;-88
2023/05/21 05:31:31;;;;;;;7.15;4.95;;;15.10;99.90;;;;;;4022793;29;20564;-89
2023/05/21 05:33:32;;;;;;;7.03;5.18;;;15.50;99.90;;;;;;3993226;29;20272;-88
2023/05/21 05:35:33;;;;;;;10.60;5.50;;;16.00;99.90;;;;;;4007839;29;20217;-88
2023/05/21 05:37:34;;;;;;;11.40;5.55;;;15.90;99.90;;;;;;4023337;29;20308;-89
2023/05/21 05:39:34;;;;;;;8.25;5.30;;;15.90;99.90;;;;;;4007761;29;20580;-94
2023/05/21 05:41:35;;;;;;;8.75;5.63;;;15.60;99.90;;;;;;4023079;29;20193;-88
2023/05/21 05:43:36;;;;;;;9.25;5.57;;;15.70;99.90;;;;;;4007638;29;20171;-88
2023/05/21 05:45:37;;;;;;;12.13;6.03;;;15.50;99.90;;;;;;4007491;29;20219;-88
2023/05/21 05:47:44;;;;;;;13.82;6.13;;;15.30;99.90;;;;;;4023027;29;20643;-88
2023/05/21 05:49:45;;;;;;;10.52;6.15;;;15.30;99.90;;;;;;4007474;29;20174;-88
2023/05/21 05:51:45;;;;;;;13.82;6.07;;;15.30;99.90;;;;;;3992680;29;20585;-89
2023/05/21 05:53:46;;;;;;;9.60;5.80;;;15.20;99.90;;;;;;4007525;29;20526;-88
2023/05/21 05:55:47;;;;;;;9.25;5.53;;;15.30;99.90;;;;;;4007424;29;20199;-90
2023/05/21 05:57:48;;;;;;;8.63;5.35;;;15.30;99.90;;;;;;3992527;29;20258;-88
2023/05/21 05:59:50;;;;;;;9.88;5.85;;;15.20;99.90;;;;;;4008175;29;20182;-88
2023/05/21 06:01:51;;;;;;;10.20;5.65;;;15.50;99.90;;;;;;4022668;29;20174;-88
2023/05/21 06:03:52;;;;;;;10.18;6.00;;;15.60;99.90;;;;;;4022607;29;20269;-87
2023/05/21 06:05:53;;;;;;;10.50;6.28;;;15.60;99.90;;;;;;3992095;29;20233;-88
2023/05/21 06:07:54;;;;;;;9.02;5.90;;;15.40;99.90;;;;;;4007564;29;20187;-88
2023/05/21 06:09:55;;;;;;;14.25;5.72;;;15.30;99.90;;;;;;3993597;29;20176;-88
2023/05/21 06:11:55;;;;;;;7.57;5.68;;;15.50;99.90;;;;;;4008245;29;20201;-88
2023/05/21 06:13:59;;;;;;;8.20;6.35;;;15.60;99.90;;;;;;4023932;29;20174;-87
2023/05/21 06:16:00;;;;;;;10.95;6.50;;;15.70;99.90;;;;;;4007251;29;20222;-88
2023/05/21 06:18:01;;;;;;;10.63;6.15;;;15.70;99.90;;;;;;4007322;29;20178;-87
2023/05/21 06:20:03;;;;;;;11.90;5.90;;;15.70;99.90;;;;;;4007150;29;20522;-88
2023/05/21 06:22:04;;;;;;;9.45;6.03;;;15.70;99.90;;;;;;4022440;29;20190;-88
2023/05/21 06:24:05;;;;;;;8.77;6.13;;;15.60;99.90;;;;;;4007909;29;20202;-88
2023/05/21 06:26:06;;;;;;;10.50;6.13;;;15.70;99.90;;;;;;3992212;29;20671;-88
2023/05/21 06:28:07;;;;;;;7.43;5.97;;;15.70;99.90;;;;;;4007112;29;20669;-88
2023/05/21 06:30:09;;;;;;;10.43;6.10;;;15.70;99.90;;;;;;4007907;29;20659;-88
2023/05/21 06:32:10;;;;;;;10.38;6.80;;;15.90;99.90;;;;;;4022350;29;20185;-87
2023/05/21 06:34:11;;;;;;;7.55;5.80;;;16.00;99.90;;;;;;4007462;29;20672;-88
2023/05/21 06:36:11;;;;;;;9.00;6.45;;;16.00;99.90;;;;;;3991888;29;20191;-88
2023/05/21 06:38:13;;;;;;;8.15;6.30;;;16.00;99.90;;;;;;4007226;29;20195;-88
2023/05/21 06:40:14;;;;;;;9.30;6.05;;;16.10;99.90;;;;;;4022323;29;20246;-88
2023/05/21 06:42:15;;;;;;;15.57;6.60;;;16.20;99.90;;;;;;4007655;29;20178;-95
2023/05/21 06:44:34;;;;;;;9.52;6.40;;;16.10;99.90;;;;;;4023867;29;20551;-88
2023/05/21 06:46:49;;;;;;;11.07;6.00;;;16.20;99.90;;;;;;4008968;29;20178;-88
2023/05/21 06:48:52;;;;;;;11.20;6.97;;;16.20;99.90;;;;;;4007086;29;20178;-88
2023/05/21 06:50:54;;;;;;;10.05;6.47;;;16.10;99.90;;;;;;4021945;29;20197;-87
2023/05/21 06:52:54;;;;;;;7.50;5.90;;;16.10;99.90;;;;;;4022034;29;20182;-88
2023/05/21 06:54:55;;;;;;;9.10;6.70;;;16.20;99.90;;;;;;3992275;29;20219;-91
2023/05/21 06:56:58;;;;;;;9.48;6.38;;;16.40;99.90;;;;;;4006782;29;20222;-88
2023/05/21 06:58:59;;;;;;;11.20;5.68;;;16.60;99.90;;;;;;3991743;29;20582;-88
2023/05/21 07:01:00;;;;;;;9.38;6.78;;;16.60;99.90;;;;;;4006343;29;20238;-86
2023/05/21 07:03:01;;;;;;;10.32;6.03;;;16.70;99.90;;;;;;3991877;29;20301;-88
2023/05/21 07:05:02;;;;;;;10.57;6.32;;;16.80;99.90;;;;;;4006824;29;20202;-88
2023/05/21 07:07:03;;;;;;;11.10;6.60;;;16.80;99.90;;;;;;4006517;29;20214;-89
2023/05/21 07:09:05;;;;;;;9.13;6.28;;;16.70;99.90;;;;;;3992091;29;20172;-87
2023/05/21 07:11:06;;;;;;;9.80;6.32;;;16.80;99.90;;;;;;4006747;29;20178;-88
2023/05/21 07:13:07;;;;;;;8.70;5.65;;;17.10;99.90;;;;;;4006300;29;20633;-88
2023/05/21 07:15:08;;;;;;;11.30;6.00;;;17.40;99.90;;;;;;4006600;29;20772;-88
2023/05/21 07:17:09;;;;;;;10.07;5.78;;;17.80;99.90;;;;;;4007067;29;20275;-88
2023/05/21 07:19:10;;;;;;;11.23;5.63;;;18.00;99.90;;;;;;4025237;29;20182;-88
2023/05/21 07:21:11;;;;;;;9.05;5.55;;;17.70;99.90;;;;;;3994400;29;20218;-88
2023/05/21 07:23:12;;;;;;;8.30;5.57;;;17.70;99.90;;;;;;4009666;29;20187;-88
2023/05/21 07:25:12;;;;;;;12.15;6.05;;;18.00;99.90;;;;;;4010236;29;20703;-88
2023/05/21 07:27:13;;;;;;;10.82;5.20;;;18.20;99.90;;;;;;4009744;29;20654;-88
2023/05/21 07:29:15;;;;;;;13.32;5.70;;;18.10;99.90;;;;;;4010154;29;20278;-88
2023/05/21 07:31:16;;;;;;;25.80;6.28;;;18.00;99.90;;;;;;4011452;29;20637;-87
2023/05/21 07:33:22;;;;;;;9.43;5.88;;;18.20;99.90;;;;;;4014440;29;20179;-87
2023/05/21 07:35:27;;;;;;;10.15;5.50;;;18.60;99.90;;;;;;4017848;29;20194;-89
2023/05/21 07:37:29;;;;;;;8.77;5.13;;;18.90;99.90;;;;;;4011496;29;20257;-88
2023/05/21 07:39:30;;;;;;;10.52;5.45;;;19.10;99.90;;;;;;4010502;29;20179;-88
2023/05/21 07:41:31;;;;;;;7.18;5.22;;;19.50;99.90;;;;;;4024698;29;20190;-87
2023/05/21 07:43:35;;;;;;;7.82;5.18;;;20.00;99.90;;;;;;4010116;29;20258;-88
2023/05/21 07:45:36;;;;;;;10.90;5.68;;;20.30;99.90;;;;;;3994831;29;20618;-88
2023/05/21 07:47:38;;;;;;;14.32;5.93;;;20.20;99.90;;;;;;3994251;29;20274;-88
2023/05/21 07:49:39;;;;;;;9.48;5.40;;;20.40;99.90;;;;;;4009757;29;20179;-89
2023/05/21 07:51:40;;;;;;;9.85;5.63;;;20.40;99.90;;;;;;4009530;29;20240;-88
2023/05/21 07:53:42;;;;;;;7.97;5.60;;;20.70;99.90;;;;;;4010929;29;20657;-87
2023/05/21 07:55:46;;;;;;;7.75;5.05;;;20.80;99.90;;;;;;4009890;29;20195;-94
2023/05/21 07:57:51;;;;;;;7.00;5.05;;;20.90;99.90;;;;;;4009555;29;20259;-87
2023/05/21 08:00:00;;;;;;;11.35;5.07;;;20.90;99.90;;;;;;4010915;29;20198;-88
2023/05/21 08:02:03;;;;;;;8.32;5.30;;;20.90;99.90;;;;;;4025164;29;20185;-88
2023/05/21 08:04:05;;;;;;;6.97;5.63;;;21.10;99.90;;;;;;4009136;29;20179;-88
2023/05/21 08:06:06;;;;;;;6.90;5.30;;;21.10;99.90;;;;;;4008894;29;20222;-88
2023/05/21 08:08:07;;;;;;;8.02;5.40;;;21.20;99.90;;;;;;4010047;29;20514;-88
2023/05/21 08:10:08;;;;;;;9.07;5.22;;;21.40;99.90;;;;;;4009432;29;20220;-89
2023/05/21 08:12:09;;;;;;;8.43;5.35;;;21.50;99.90;;;;;;4024582;29;20575;-88
2023/05/21 08:14:10;;;;;;;7.57;5.45;;;21.50;99.90;;;;;;4009382;29;20509;-88
2023/05/21 08:16:11;;;;;;;7.38;5.35;;;21.70;99.90;;;;;;4009838;29;20202;-89
2023/05/21 08:18:12;;;;;;;8.38;5.35;;;21.70;99.90;;;;;;3995584;29;20657;-88
2023/05/21 08:20:16;;;;;;;8.38;5.45;;;21.90;99.90;;;;;;4009936;29;20199;-89
2023/05/21 08:22:19;;;;;;;10.45;5.47;;;21.80;99.90;;;;;;4010697;29;20267;-96
2023/05/21 08:24:20;;;;;;;7.28;5.22;;;22.20;99.90;;;;;;4024047;29;20189;-88
2023/05/21 08:26:21;;;;;;;8.52;5.05;;;22.60;99.90;;;;;;4009074;29;20647;-89
2023/05/21 08:28:22;;;;;;;12.75;5.65;;;22.60;99.90;;;;;;4025299;29;20270;-89
2023/05/21 08:30:23;;;;;;;11.98;5.18;;;22.50;99.90;;;;;;4009621;29;20178;-88
2023/05/21 08:32:24;;;;;;;9.77;5.38;;;22.90;99.90;;;;;;4024326;29;20242;-89
2023/05/21 08:34:26;;;;;;;9.68;4.93;;;22.90;99.90;;;;;;4009998;29;20207;-89
2023/05/21 08:36:44;;;;;;;12.68;5.60;;;22.60;99.90;;;;;;4025437;29;20225;-90
2023/05/21 08:39:03;;;;;;;10.15;5.68;;;22.30;99.90;;;;;;4025115;29;20288;-89
2023/05/21 08:41:11;;;;;;;8.13;5.75;;;22.20;99.90;;;;;;4008974;29;20187;-87
2023/05/21 08:43:14;;;;;;;8.70;5.80;;;22.10;99.90;;;;;;4009008;29;20187;-87
2023/05/21 08:45:22;;;;;;;9.35;5.57;;;22.20;99.90;;;;;;4008905;29;20203;-89
2023/05/21 08:47:26;;;;;;;8.00;5.32;;;22.30;99.90;;;;;;4008397;29;20703;-88
2023/05/21 08:49:33;;;;;;;9.90;5.15;;;22.20;99.90;;;;;;4023982;29;20186;-88
2023/05/21 08:51:34;;;;;;;7.05;5.53;;;21.80;99.90;;;;;;4008164;29;20175;-88
2023/05/21 08:53:35;;;;;;;11.80;5.90;;;21.60;99.90;;;;;;4008558;29;20254;-88
2023/05/21 08:55:41;;;;;;;8.00;5.38;;;21.30;99.90;;;;;;4023610;29;20202;-89
2023/05/21 08:57:43;;;;;;;10.43;6.65;;;21.20;99.90;;;;;;3993714;29;20284;-88
2023/05/21 08:59:45;;;;;;;9.25;5.75;;;21.20;99.90;;;;;;3993545;29;20171;-91
2023/05/21 09:01:56;;;;;;;9.70;6.72;;;21.20;99.90;;;;;;4008059;29;20183;-89
2023/05/21 09:04:07;;;;;;;10.18;6.50;;;21.40;99.90;;;;;;4009614;29;20187;-89
2023/05/21 09:06:15;;;;;;;10.02;6.30;;;21.40;99.90;;;;;;4008719;29;20214;-89
2023/05/21 09:08:33;;;;;;;8.77;6.45;;;21.60;99.90;;;;;;4010418;29;20175;-89
2023/05/21 09:10:45;;;;;;;9.35;6.63;;;21.90;99.90;;;;;;4009736;29;20179;-89
2023/05/21 09:12:47;;;;;;;11.35;7.32;;;22.20;99.90;;;;;;4008334;29;20179;-88
2023/05/21 09:14:48;;;;;;;10.07;7.53;;;22.10;99.90;;;;;;3993764;29;20284;-90
2023/05/21 09:16:52;;;;;;;14.55;7.40;;;22.00;99.90;;;;;;4024554;29;20198;-89
2023/05/21 09:18:53;;;;;;;13.75;7.10;;;22.10;99.90;;;;;;4008745;29;20209;-89
2023/05/21 09:21:28;;;;;;;10.50;7.90;;;22.10;99.90;;;;;;4022930;29;20264;-88
2023/05/21 09:23:32;;;;;;;12.90;8.00;;;21.60;99.90;;;;;;3993826;29;20240;-88
2023/05/21 09:25:37;;;;;;;11.52;7.80;;;21.20;99.90;;;;;;4025438;29;20679;-87
2023/05/21 09:27:43;;;;;;;17.35;8.25;;;21.50;99.90;;;;;;4008056;29;20235;-91
2023/05/21 09:29:43;;;;;;;16.48;9.18;;;21.50;99.90;;;;;;4008209;29;20178;-88
2023/05/21 09:31:44;;;;;;;9.10;7.72;;;21.60;99.90;;;;;;4008267;29;20179;-88
2023/05/21 09:33:46;;;;;;;12.70;8.57;;;21.70;99.90;;;;;;4008329;29;20290;-89
2023/05/21 09:35:49;;;;;;;10.93;8.40;;;21.60;99.90;;;;;;4007995;29;20202;-90
2023/05/21 09:37:52;;;;;;;13.93;8.95;;;21.70;99.90;;;;;;4007876;29;20217;-90
2023/05/21 09:39:54;;;;;;;13.35;8.38;;;22.10;99.90;;;;;;3992744;29;20236;-88
2023/05/21 09:41:57;;;;;;;11.52;8.85;;;22.30;99.90;;;;;;4008123;29;20175;-88
2023/05/21 09:44:03;;;;;;;15.52;9.27;;;22.30;99.90;;;;;;4008154;29;20183;-89
2023/05/21 09:46:04;;;;;;;12.20;9.70;;;22.00;99.90;;;;;;4007515;29;20687;-88
2023/05/21 09:48:06;;;;;;;15.93;10.10;;;21.40;99.90;;;;;;4007719;29;20221;-88
2023/05/21 09:50:09;;;;;;;13.57;9.27;;;21.30;99.90;;;;;;4007857;29;20182;-88
2023/05/21 09:52:10;;;;;;;11.48;9.02;;;21.60;99.90;;;;;;4008058;29;20187;-89
2023/05/21 09:54:12;;;;;;;16.67;8.75;;;22.10;99.90;;;;;;4008005;29;20652;-88
2023/05/21 09:56:13;;;;;;;18.08;9.65;;;22.60;99.90;;;;;;4007746;29;20205;-88
2023/05/21 09:58:14;;;;;;;15.80;9.73;;;22.40;99.90;;;;;;3993243;29;20271;-89
2023/05/21 10:00:20;;;;;;;13.00;9.75;;;22.30;99.90;;;;;;4024529;29;20265;-88
2023/05/21 10:02:22;;;;;;;12.57;9.38;;;22.50;99.90;;;;;;4014309;29;20206;-87
2023/05/21 10:04:23;;;;;;;16.52;10.35;;;22.40;99.90;;;;;;4010850;29;20667;-88
2023/05/21 10:06:27;;;;;;;12.00;9.98;;;22.80;99.90;;;;;;4007350;29;20228;-88
2023/05/21 10:08:33;;;;;;;13.23;10.27;;;22.80;99.90;;;;;;4007296;29;20183;-89
2023/05/21 10:10:37;;;;;;;15.90;10.27;;;22.70;99.90;;;;;;3992713;29;20175;-88
2023/05/21 10:12:44;;;;;;;17.30;10.43;;;22.50;99.90;;;;;;3992994;29;20267;-89
2023/05/21 10:14:51;;;;;;;14.32;11.00;;;22.20;99.90;;;;;;4007296;29;20186;-91
2023/05/21 10:16:53;;;;;;;16.67;10.88;;;21.90;99.90;;;;;;4008175;29;20206;-88
2023/05/21 10:18:56;;;;;;;15.48;10.63;;;21.70;99.90;;;;;;4009192;29;20590;-89
2023/05/21 10:20:59;;;;;;;16.10;10.75;;;21.80;99.90;;;;;;4007667;29;20190;-89
2023/05/21 10:23:01;;;;;;;15.05;10.68;;;21.90;99.90;;;;;;4007277;29;20282;-88
2023/05/21 10:25:04;;;;;;;20.17;10.57;;;21.70;99.90;;;;;;4007304;29;20218;-89
2023/05/21 10:27:06;;;;;;;14.35;10.27;;;21.30;99.90;;;;;;4007262;29;20186;-95
2023/05/21 10:29:07;;;;;;;15.32;11.23;;;21.00;99.90;;;;;;3993716;29;20172;-87
2023/05/21 10:31:09;;;;;;;14.52;9.95;;;20.90;99.90;;;;;;3993294;29;20176;-87
2023/05/21 10:33:15;;;;;;;14.60;11.32;;;20.90;99.90;;;;;;4007082;29;20267;-88
2023/05/21 10:35:16;;;;;;;18.88;12.23;;;21.00;99.90;;;;;;3992643;29;20211;-89